Time;durP1;ratioP1;P1;durP2;ratioP2;P2;SDS_P1;SDS_P2;PMS_P1;PMS_P2;Temp;Humidity;BMP_temperature;BMP_pressure;BME280_temperature;BME280_humidity;BME280_pressure;Samples;Min_cycle;Max_cycle;Signal;HPM_P1;HPM_P2
2023/05/12 00:00:13;;;;;;;19.60;9.27;;;;;;;12.46;94.72;101965.09;6102384;19;20051;-70
2023/05/12 00:02:16;;;;;;;25.10;9.30;;;;;;;12.45;94.60;101960.69;6098414;19;20085;-70
2023/05/12 00:04:21;;;;;;;22.65;8.70;;;;;;;12.43;94.73;101963.41;6098679;19;20010;-71
2023/05/12 00:06:26;;;;;;;20.92;8.65;;;;;;;12.44;94.34;101962.47;6101384;19;20007;-71
2023/05/12 00:08:34;;;;;;;20.58;9.30;;;;;;;12.38;94.45;101959.19;6098675;19;20043;-69
2023/05/12 00:10:39;;;;;;;21.55;9.02;;;;;;;12.32;94.73;101954.06;6097359;19;20002;-70
2023/05/12 00:12:47;;;;;;;19.98;8.60;;;;;;;12.29;94.42;101958.53;6098518;19;20681;-71
2023/05/12 00:14:52;;;;;;;20.10;8.48;;;;;;;12.26;94.58;101955.97;6099925;19;20011;-70
2023/05/12 00:16:58;;;;;;;18.65;7.82;;;;;;;12.21;94.60;101957.88;6096732;19;20011;-71
2023/05/12 00:19:03;;;;;;;22.77;8.32;;;;;;;12.26;94.32;101963.88;6104072;19;20007;-70
2023/05/12 00:21:09;;;;;;;16.83;7.45;;;;;;;12.18;94.52;101952.72;6103361;19;20093;-71
2023/05/12 00:23:14;;;;;;;21.73;7.95;;;;;;;12.16;94.32;101959.78;6104094;19;20560;-71
2023/05/12 00:25:21;;;;;;;18.63;6.93;;;;;;;12.14;94.18;101947.56;6104104;19;20014;-70
2023/05/12 00:27:26;;;;;;;19.25;7.13;;;;;;;12.08;93.69;101948.63;6100521;19;20035;-71
2023/05/12 00:29:37;;;;;;;17.30;7.75;;;;;;;12.00;94.31;101954.09;6097646;19;20014;-71
2023/05/12 00:31:42;;;;;;;17.30;7.15;;;;;;;11.95;94.47;101948.09;6099043;19;20562;-71
2023/05/12 00:33:47;;;;;;;16.13;7.05;;;;;;;11.93;93.99;101946.41;6099987;19;20580;-71
2023/05/12 00:35:52;;;;;;;16.70;6.82;;;;;;;11.97;94.39;101953.34;6102312;19;20026;-72
2023/05/12 00:37:57;;;;;;;18.40;7.65;;;;;;;11.86;94.40;101949.22;6090210;19;20003;-70
2023/05/12 00:40:03;;;;;;;19.30;6.75;;;;;;;11.84;94.35;101951.00;6098190;19;20010;-70
2023/05/12 00:42:08;;;;;;;17.63;6.93;;;;;;;11.77;94.31;101951.22;6099804;19;20010;-72
2023/05/12 00:44:13;;;;;;;17.45;6.85;;;;;;;11.68;94.61;101954.97;6097289;19;20013;-71
2023/05/12 00:46:21;;;;;;;14.15;6.60;;;;;;;11.62;95.05;101952.53;6100260;19;20065;-71
2023/05/12 00:48:26;;;;;;;16.38;6.78;;;;;;;11.63;94.61;101948.97;6100034;19;20040;-72
2023/05/12 00:50:33;;;;;;;16.45;6.25;;;;;;;11.52;94.89;101943.13;6099106;19;20007;-72
2023/05/12 00:52:38;;;;;;;15.68;7.65;;;;;;;11.53;94.54;101947.50;6100214;19;19998;-71
2023/05/12 00:54:44;;;;;;;18.27;8.30;;;;;;;11.48;95.11;101944.13;6097866;19;20023;-73
2023/05/12 00:56:49;;;;;;;20.08;7.35;;;;;;;11.49;94.46;101943.22;6098437;19;20032;-72
2023/05/12 00:58:55;;;;;;;14.00;6.35;;;;;;;11.51;94.92;101950.19;6095707;19;20534;-72
2023/05/12 01:01:00;;;;;;;15.13;6.95;;;;;;;11.42;94.90;101943.38;6098105;19;20026;-72
2023/05/12 01:03:07;;;;;;;15.05;5.90;;;;;;;11.39;95.41;101951.34;6099036;19;20002;-71
2023/05/12 01:05:13;;;;;;;15.52;6.47;;;;;;;11.41;95.04;101949.53;6098298;19;20010;-71
2023/05/12 01:07:21;;;;;;;13.77;6.45;;;;;;;11.31;94.94;101948.06;6100476;19;20066;-70
2023/05/12 01:09:26;;;;;;;15.30;5.82;;;;;;;11.26;95.63;101944.69;6101720;19;20552;-71
2023/05/12 01:11:33;;;;;;;16.30;6.60;;;;;;;11.33;95.76;101942.75;6101011;19;20010;-71
2023/05/12 01:13:38;;;;;;;17.58;7.90;;;;;;;11.27;95.81;101945.53;6099423;19;20043;-72
2023/05/12 01:15:51;;;;;;;15.43;5.97;;;;;;;11.32;95.62;101947.16;6096625;19;20078;-72
2023/05/12 01:18:02;;;;;;;14.75;5.82;;;;;;;11.24;95.71;101941.22;6091010;19;20051;-70
2023/05/12 01:20:13;;;;;;;18.60;6.13;;;;;;;11.14;95.93;101937.97;6099997;19;20018;-70
2023/05/12 01:22:22;;;;;;;14.45;5.15;;;;;;;11.23;96.00;101939.50;6100493;19;20094;-71
2023/05/12 01:24:33;;;;;;;13.88;5.55;;;;;;;11.24;95.71;101940.34;6097737;19;20014;-71
2023/05/12 01:26:41;;;;;;;13.73;6.32;;;;;;;11.21;95.59;101939.53;6098120;19;20007;-71
2023/05/12 01:28:47;;;;;;;16.20;5.65;;;;;;;11.18;95.88;101936.13;6097264;19;20018;-71
2023/05/12 01:30:52;;;;;;;13.27;5.25;;;;;;;11.15;96.08;101944.94;6095468;19;20483;-71
2023/05/12 01:33:00;;;;;;;11.00;4.80;;;;;;;11.14;95.92;101943.25;6098552;19;20373;-70
2023/05/12 01:35:06;;;;;;;11.25;5.28;;;;;;;11.18;95.56;101944.88;6098133;19;20031;-70
2023/05/12 01:37:11;;;;;;;12.90;5.60;;;;;;;11.13;95.81;101938.84;6097305;19;20036;-70
2023/05/12 01:39:16;;;;;;;12.27;4.85;;;;;;;11.18;94.61;101941.38;6099085;19;19998;-70
2023/05/12 01:41:21;;;;;;;13.88;5.00;;;;;;;11.05;94.57;101932.94;6096195;19;20033;-70
2023/05/12 01:43:29;;;;;;;13.75;5.63;;;;;;;11.05;94.92;101932.06;6100408;19;20319;-70
2023/05/12 01:45:35;;;;;;;14.25;5.72;;;;;;;11.04;94.64;101932.97;6096731;19;20409;-70
2023/05/12 01:47:40;;;;;;;15.10;5.07;;;;;;;11.02;95.08;101940.03;6099592;19;20014;-71
2023/05/12 01:49:45;;;;;;;11.80;5.68;;;;;;;11.05;94.56;101932.06;6097742;19;20017;-70
2023/05/12 01:51:50;;;;;;;10.52;4.82;;;;;;;11.02;94.40;101937.41;6096690;19;20460;-70
2023/05/12 01:53:55;;;;;;;11.18;5.10;;;;;;;11.05;94.78;101935.56;6091688;19;20459;-69
2023/05/12 01:56:01;;;;;;;12.38;5.10;;;;;;;11.00;94.05;101942.69;6098435;19;20582;-70
2023/05/12 01:58:06;;;;;;;14.68;4.68;;;;;;;10.99;94.32;101941.84;6095572;19;20017;-70
2023/05/12 02:00:14;;;;;;;14.43;4.97;;;;;;;11.05;94.59;101939.97;6096561;19;20026;-69
2023/05/12 02:02:19;;;;;;;11.38;5.13;;;;;;;10.97;95.41;101938.38;6096820;19;20169;-70
2023/05/12 02:04:25;;;;;;;13.82;5.90;;;;;;;10.95;94.43;101940.22;6097547;19;20027;-70
2023/05/12 02:06:34;;;;;;;14.35;5.13;;;;;;;11.06;95.13;101942.56;6098604;19;20017;-70
2023/05/12 02:08:41;;;;;;;17.65;6.15;;;;;;;10.98;95.44;101939.25;6096176;19;20598;-70
2023/05/12 02:10:46;;;;;;;15.10;5.80;;;;;;;10.94;95.50;101938.47;6096489;19;20007;-70
2023/05/12 02:12:51;;;;;;;15.43;6.40;;;;;;;10.94;95.57;101940.22;6095606;19;20031;-70
2023/05/12 02:14:56;;;;;;;13.32;5.97;;;;;;;10.93;96.10;101936.75;6096376;19;20044;-72
2023/05/12 02:17:04;;;;;;;15.02;7.47;;;;;;;10.92;95.84;101940.25;6094571;19;20035;-72
2023/05/12 02:19:09;;;;;;;17.77;7.07;;;;;;;10.93;96.40;101936.75;6097974;19;20574;-73
2023/05/12 02:21:14;;;;;;;17.52;8.00;;;;;;;10.92;96.29;101935.00;6095538;19;20074;-73
2023/05/12 02:23:19;;;;;;;19.33;6.95;;;;;;;10.93;96.40;101933.25;6092402;19;20662;-72
2023/05/12 02:25:26;;;;;;;17.42;7.78;;;;;;;10.88;96.47;101928.09;6096005;19;20238;-73
2023/05/12 02:27:31;;;;;;;20.40;7.75;;;;;;;10.88;96.89;101927.25;6093444;19;20007;-72
2023/05/12 02:29:36;;;;;;;20.30;8.07;;;;;;;10.82;96.68;101925.63;6090477;19;20646;-72
2023/05/12 02:31:41;;;;;;;19.55;7.13;;;;;;;10.84;96.67;101921.16;6097194;19;20003;-69
2023/05/12 02:33:50;;;;;;;16.67;7.13;;;;;;;10.80;96.90;101923.94;6103662;19;20630;-71
2023/05/12 02:35:56;;;;;;;16.90;7.38;;;;;;;10.82;96.97;101925.63;6098873;19;20039;-71
2023/05/12 02:38:01;;;;;;;15.77;6.65;;;;;;;10.79;97.48;101922.19;6099032;19;20101;-72
2023/05/12 02:40:07;;;;;;;16.65;6.88;;;;;;;10.79;97.26;101917.78;6101480;19;20007;-71
2023/05/12 02:42:12;;;;;;;22.88;7.45;;;;;;;10.85;97.18;101916.75;6097427;19;20049;-72
2023/05/12 02:44:21;;;;;;;16.70;7.15;;;;;;;10.87;97.16;101915.84;6099279;19;20018;-72
2023/05/12 02:46:26;;;;;;;17.83;7.75;;;;;;;10.82;97.42;101923.00;6100553;19;20073;-72
2023/05/12 02:48:31;;;;;;;18.70;7.53;;;;;;;10.75;97.90;101916.16;6104554;19;20010;-72
2023/05/12 02:50:39;;;;;;;18.92;8.73;;;;;;;10.80;97.09;101908.16;6101605;19;20072;-73
2023/05/12 02:52:44;;;;;;;20.75;8.45;;;;;;;10.80;97.74;101914.28;6100630;19;20014;-72
2023/05/12 02:54:49;;;;;;;18.85;8.07;;;;;;;10.80;97.57;101909.00;6104229;19;20011;-73
2023/05/12 02:56:56;;;;;;;18.83;8.50;;;;;;;10.75;97.43;101906.50;6099750;19;20094;-73
2023/05/12 02:59:01;;;;;;;23.63;9.95;;;;;;;10.76;97.31;101905.56;6101680;19;20003;-72
2023/05/12 03:01:06;;;;;;;21.20;7.55;;;;;;;10.82;97.42;101898.44;6099600;19;20009;-73
2023/05/12 03:03:15;;;;;;;26.05;9.05;;;;;;;10.71;97.67;101910.06;6101708;19;20043;-72
2023/05/12 03:05:23;;;;;;;16.92;7.68;;;;;;;10.76;97.54;101902.09;6101835;19;20011;-74
2023/05/12 03:07:33;;;;;;;19.60;7.90;;;;;;;10.67;97.43;101902.31;6100496;19;20010;-73
2023/05/12 03:09:38;;;;;;;17.23;7.70;;;;;;;10.73;97.38;101896.91;6102783;19;20006;-73
2023/05/12 03:11:43;;;;;;;20.17;7.38;;;;;;;10.74;97.76;101896.00;6103204;19;20013;-73
2023/05/12 03:13:51;;;;;;;17.88;7.25;;;;;;;10.79;97.72;101895.88;6100065;19;20404;-73
2023/05/12 03:15:59;;;;;;;26.38;10.27;;;;;;;10.72;97.47;101890.78;6099692;19;20531;-72
2023/05/12 03:18:05;;;;;;;21.35;9.32;;;;;;;10.71;97.72;101888.19;6099765;19;20010;-72
2023/05/12 03:20:11;;;;;;;22.23;8.82;;;;;;;10.66;98.40;101890.91;6103040;19;20007;-74
2023/05/12 03:22:16;;;;;;;21.83;9.85;;;;;;;10.66;98.36;101885.66;6100278;19;20019;-72
2023/05/12 03:24:24;;;;;;;27.77;10.32;;;;;;;10.68;98.71;101885.63;6098953;19;20127;-73
2023/05/12 03:26:30;;;;;;;27.90;11.65;;;;;;;10.72;98.37;101884.69;6101366;19;20105;-72
2023/05/12 03:28:35;;;;;;;33.03;14.02;;;;;;;10.72;98.76;101885.53;6098808;19;20019;-73
2023/05/12 03:30:41;;;;;;;34.28;13.27;;;;;;;10.69;98.90;101885.63;6098346;19;20790;-72
2023/05/12 03:32:46;;;;;;;27.15;12.20;;;;;;;10.73;99.32;101876.72;6100750;19;20366;-72
2023/05/12 03:34:51;;;;;;;28.52;12.82;;;;;;;10.76;99.41;101876.66;6100845;19;20010;-72
2023/05/12 03:36:57;;;;;;;32.15;13.60;;;;;;;10.67;99.92;101871.63;6103332;19;20014;-71
2023/05/12 03:39:02;;;;;;;27.63;12.27;;;;;;;10.68;100.00;101869.88;6105327;19;20036;-71
2023/05/12 03:41:09;;;;;;;24.05;11.13;;;;;;;10.68;100.00;101865.47;6100807;19;20276;-71
2023/05/12 03:43:14;;;;;;;27.15;10.38;;;;;;;10.70;100.00;101866.31;6099000;19;20132;-71
2023/05/12 03:45:22;;;;;;;20.15;9.57;;;;;;;10.72;100.00;101861.03;6099583;19;20018;-72
2023/05/12 03:47:31;;;;;;;23.30;10.35;;;;;;;10.78;100.00;101868.75;6098915;19;20003;-73
2023/05/12 03:49:36;;;;;;;21.88;8.77;;;;;;;10.76;100.00;101865.28;6099033;19;20381;-71
2023/05/12 03:51:44;;;;;;;20.17;9.13;;;;;;;10.69;100.00;101867.22;6101956;19;20030;-72
2023/05/12 03:53:52;;;;;;;19.33;8.98;;;;;;;10.71;100.00;101864.53;6097737;19;20622;-73
2023/05/12 03:55:57;;;;;;;16.67;8.73;;;;;;;10.78;100.00;101860.84;6099596;19;20006;-70
2023/05/12 03:58:05;;;;;;;19.70;7.72;;;;;;;10.85;100.00;101864.19;6102064;19;20491;-73
2023/05/12 04:00:11;;;;;;;17.55;7.43;;;;;;;10.79;100.00;101859.94;6097495;19;20114;-72
2023/05/12 04:02:16;;;;;;;15.32;7.35;;;;;;;10.76;100.00;101860.03;6101043;19;20492;-73
2023/05/12 04:04:21;;;;;;;16.10;7.47;;;;;;;10.72;100.00;101861.03;6097839;19;20466;-73
2023/05/12 04:06:26;;;;;;;14.90;7.28;;;;;;;10.71;100.00;101862.75;6103274;19;20404;-72
2023/05/12 04:08:32;;;;;;;14.63;7.05;;;;;;;10.73;100.00;101855.69;6101906;19;20044;-72
2023/05/12 04:10:41;;;;;;;17.92;7.20;;;;;;;10.79;100.00;101861.72;6098947;19;20011;-71
2023/05/12 04:12:46;;;;;;;15.50;7.30;;;;;;;10.73;100.00;101863.59;6100586;19;20090;-70
2023/05/12 04:14:54;;;;;;;13.43;6.18;;;;;;;10.81;100.00;101859.91;6102109;19;20011;-70
2023/05/12 04:16:59;;;;;;;14.02;6.88;;;;;;;10.82;100.00;101864.25;6103517;19;20449;-70
2023/05/12 04:19:05;;;;;;;12.50;5.80;;;;;;;10.77;100.00;101864.41;6102888;19;20112;-70
2023/05/12 04:21:10;;;;;;;12.27;5.45;;;;;;;10.72;100.00;101858.38;6101965;19;20398;-70
2023/05/12 04:23:15;;;;;;;12.18;5.95;;;;;;;10.74;100.00;101859.19;6098631;19;20541;-70
2023/05/12 04:25:21;;;;;;;12.38;5.35;;;;;;;10.74;100.00;101859.19;6101801;19;20007;-70
2023/05/12 04:27:26;;;;;;;11.52;5.43;;;;;;;10.73;100.00;101865.34;6101240;19;20019;-71
2023/05/12 04:29:31;;;;;;;13.27;5.53;;;;;;;10.71;100.00;101861.91;6101504;19;20112;-69
2023/05/12 04:31:39;;;;;;;11.98;5.70;;;;;;;10.68;100.00;101867.25;6102342;19;20477;-70
2023/05/12 04:33:44;;;;;;;11.38;5.88;;;;;;;10.76;100.00;101865.28;6104866;19;20003;-70
2023/05/12 04:35:57;;;;;;;14.20;5.95;;;;;;;10.69;100.00;101863.69;6105398;19;20400;-70
2023/05/12 04:38:03;;;;;;;11.38;5.30;;;;;;;10.70;100.00;101862.81;6099012;19;20012;-71
2023/05/12 04:40:10;;;;;;;12.30;6.30;;;;;;;10.68;100.00;101862.84;6101317;19;20703;-70
2023/05/12 04:42:15;;;;;;;13.60;6.07;;;;;;;10.74;100.00;101860.06;6098846;19;20035;-70
2023/05/12 04:44:21;;;;;;;13.63;6.95;;;;;;;10.87;100.00;101865.00;6096138;19;20007;-69
2023/05/12 04:46:26;;;;;;;14.73;6.78;;;;;;;10.73;100.00;101865.34;6096232;19;20017;-70
2023/05/12 04:48:33;;;;;;;15.18;7.25;;;;;;;10.81;100.00;101865.19;6098577;19;20013;-69
2023/05/12 04:50:39;;;;;;;15.77;8.30;;;;;;;10.79;100.00;101864.34;6097270;19;20027;-70
2023/05/12 04:52:44;;;;;;;16.40;7.63;;;;;;;10.76;100.00;101870.53;6096429;19;20776;-70
2023/05/12 04:54:49;;;;;;;19.92;8.68;;;;;;;10.78;100.00;101868.75;6098117;19;20007;-69
2023/05/12 04:56:55;;;;;;;17.00;8.02;;;;;;;10.80;100.00;101872.22;6093186;19;20609;-71
2023/05/12 04:59:00;;;;;;;17.10;8.68;;;;;;;10.78;100.00;101874.00;6096449;19;20504;-70
2023/05/12 05:01:06;;;;;;;14.20;8.50;;;;;;;10.88;100.00;101872.88;6094414;19;20010;-70
2023/05/12 05:03:11;;;;;;;16.08;8.18;;;;;;;10.91;100.00;101875.41;6098365;19;20521;-70
2023/05/12 05:05:20;;;;;;;17.40;8.88;;;;;;;10.98;100.00;101878.78;6100036;19;20002;-70
2023/05/12 05:07:26;;;;;;;16.90;8.25;;;;;;;11.04;100.00;101865.44;6097347;19;20007;-70
2023/05/12 05:09:32;;;;;;;17.90;8.35;;;;;;;10.96;100.00;101868.28;6099075;19;20032;-70
2023/05/12 05:11:40;;;;;;;18.95;8.55;;;;;;;11.00;100.00;101871.69;6100115;19;20027;-70
2023/05/12 05:13:45;;;;;;;18.63;9.32;;;;;;;10.99;100.00;101875.22;6098102;19;20038;-70
2023/05/12 05:15:52;;;;;;;17.38;8.63;;;;;;;11.03;100.00;101882.13;6098834;19;20345;-70
2023/05/12 05:17:58;;;;;;;20.00;8.63;;;;;;;10.96;100.00;101880.56;6089527;19;20368;-69
2023/05/12 05:20:06;;;;;;;22.35;9.52;;;;;;;11.07;100.00;101881.16;6102527;19;20086;-70
2023/05/12 05:22:19;;;;;;;22.58;9.55;;;;;;;10.99;100.00;101886.59;6099081;19;20027;-69
2023/05/12 05:24:24;;;;;;;19.75;8.88;;;;;;;10.98;100.00;101887.53;6098532;19;20014;-70
2023/05/12 05:26:29;;;;;;;20.30;9.10;;;;;;;11.07;100.00;101893.44;6099163;19;20037;-70
2023/05/12 05:28:34;;;;;;;24.30;10.85;;;;;;;11.13;100.00;101888.00;6098171;19;20021;-70
2023/05/12 05:30:39;;;;;;;20.98;10.02;;;;;;;11.13;100.00;101901.16;6098699;19;20530;-70
2023/05/12 05:32:44;;;;;;;28.08;12.52;;;;;;;11.19;100.00;101890.50;6097872;19;20007;-69
2023/05/12 05:34:49;;;;;;;26.75;11.18;;;;;;;11.18;100.00;101899.28;6101519;19;20353;-70
2023/05/12 05:36:54;;;;;;;25.80;10.60;;;;;;;11.26;100.00;101894.69;6097887;19;20027;-69
2023/05/12 05:39:02;;;;;;;29.23;13.48;;;;;;;11.27;100.00;101891.16;6099974;19;20010;-70
2023/05/12 05:41:08;;;;;;;30.23;12.40;;;;;;;11.28;100.00;101895.50;6099252;19;20002;-69
2023/05/12 05:43:12;;;;;;;27.77;12.82;;;;;;;11.35;100.00;101889.19;6097112;19;20361;-71
2023/05/12 05:45:18;;;;;;;28.15;11.95;;;;;;;11.29;100.00;101891.97;6093172;19;20026;-71
2023/05/12 05:47:23;;;;;;;29.35;13.93;;;;;;;11.34;100.00;101900.59;6094020;19;20010;-71
2023/05/12 05:49:29;;;;;;;32.05;13.98;;;;;;;11.38;100.00;101902.25;6098003;19;19998;-71
2023/05/12 05:51:34;;;;;;;32.80;14.02;;;;;;;11.41;100.00;101902.16;6097474;19;20476;-71
2023/05/12 05:53:39;;;;;;;34.40;15.02;;;;;;;11.48;100.00;101899.38;6094979;19;20011;-70
2023/05/12 05:55:47;;;;;;;32.75;14.52;;;;;;;11.45;100.00;101902.09;6102482;19;20078;-70
2023/05/12 05:57:52;;;;;;;45.08;16.63;;;;;;;11.52;100.00;101906.28;6098126;19;20536;-70
2023/05/12 05:59:57;;;;;;;42.90;16.83;;;;;;;11.58;100.00;101914.88;6093918;19;20341;-70
2023/05/12 06:02:03;;;;;;;56.78;19.00;;;;;;;11.64;100.00;101912.09;6099573;19;20054;-69
2023/05/12 06:04:08;;;;;;;61.60;21.13;;;;;;;11.69;100.00;101911.97;6098504;19;20015;-69
2023/05/12 06:06:13;;;;;;;54.58;21.48;;;;;;;11.73;100.00;101913.59;6094698;19;20007;-69
2023/05/12 06:08:18;;;;;;;55.08;20.27;;;;;;;11.76;100.00;101912.63;6098162;19;20047;-70
2023/05/12 06:10:24;;;;;;;62.65;23.20;;;;;;;11.78;100.00;101911.69;6099295;19;20684;-69
2023/05/12 06:12:35;;;;;;;55.40;22.02;;;;;;;11.87;100.00;101910.59;6097133;19;20025;-69
2023/05/12 06:14:40;;;;;;;65.28;24.73;;;;;;;11.87;100.00;101915.84;6098963;19;20043;-69
2023/05/12 06:16:45;;;;;;;62.30;23.65;;;;;;;11.93;100.00;101912.19;6100962;19;20010;-71
2023/05/12 06:18:50;;;;;;;58.35;21.52;;;;;;;11.97;100.00;101925.22;6098395;19;20737;-71
2023/05/12 06:20:55;;;;;;;61.92;21.98;;;;;;;12.06;100.00;101917.06;6100617;19;20507;-70
2023/05/12 06:23:00;;;;;;;64.80;23.50;;;;;;;12.11;100.00;101913.41;6096546;19;20357;-69
2023/05/12 06:25:05;;;;;;;70.38;25.20;;;;;;;12.23;100.00;101918.31;6098632;19;20598;-69
2023/05/12 06:27:11;;;;;;;69.68;24.65;;;;;;;12.24;100.00;101915.66;6099556;19;20546;-69
2023/05/12 06:29:20;;;;;;;65.95;24.33;;;;;;;12.33;100.00;101914.50;6100880;19;20006;-69
2023/05/12 06:31:24;;;;;;;69.82;25.23;;;;;;;12.45;100.00;101911.50;6100795;19;20310;-69
2023/05/12 06:33:30;;;;;;;71.85;23.95;;;;;;;12.46;100.00;101909.72;6097788;19;20114;-70
2023/05/12 06:35:35;;;;;;;60.78;22.60;;;;;;;12.59;100.00;101915.47;6099167;19;20011;-71
2023/05/12 06:37:40;;;;;;;65.47;23.23;;;;;;;12.58;100.00;101930.41;6098061;19;20024;-71
2023/05/12 06:39:45;;;;;;;62.35;23.58;;;;;;;12.62;100.00;101925.91;6094337;19;20010;-71
2023/05/12 06:41:49;;;;;;;59.28;21.75;;;;;;;12.67;100.00;101929.28;6097881;19;20554;-73
2023/05/12 06:43:54;;;;;;;58.22;23.08;;;;;;;12.78;100.00;101932.44;6091618;19;20585;-71
2023/05/12 06:46:02;;;;;;;57.55;22.20;;;;;;;12.84;99.97;101934.00;6096701;19;20031;-70
2023/05/12 06:48:08;;;;;;;49.10;19.90;;;;;;;12.89;99.29;101925.03;6095436;19;20011;-71
2023/05/12 06:50:14;;;;;;;50.20;19.98;;;;;;;12.93;98.45;101916.09;6087022;19;20117;-71
2023/05/12 06:52:19;;;;;;;51.00;19.00;;;;;;;12.99;98.38;101924.72;6095857;19;20039;-71
2023/05/12 06:54:26;;;;;;;50.80;20.08;;;;;;;13.12;97.60;101929.53;6096541;19;20430;-71
2023/05/12 06:56:33;;;;;;;47.75;19.02;;;;;;;13.17;97.04;101930.25;6096688;19;20006;-69
2023/05/12 06:58:38;;;;;;;42.88;18.25;;;;;;;13.20;96.71;101926.66;6082951;19;20078;-70
2023/05/12 07:00:43;;;;;;;43.13;16.38;;;;;;;13.20;96.21;101928.44;6093333;19;20007;-71
2023/05/12 07:02:50;;;;;;;39.65;15.50;;;;;;;13.26;96.35;101934.38;6096774;19;20464;-69
2023/05/12 07:04:55;;;;;;;42.17;17.83;;;;;;;13.25;96.00;101944.97;6097556;19;20106;-71
2023/05/12 07:07:00;;;;;;;36.80;15.98;;;;;;;13.28;95.96;101951.03;6097275;19;20010;-70
2023/05/12 07:09:05;;;;;;;42.22;16.35;;;;;;;13.20;95.67;101941.63;6093837;19;20039;-70
2023/05/12 07:11:10;;;;;;;36.65;15.82;;;;;;;13.32;95.24;101949.13;6092252;19;20006;-70
2023/05/12 07:13:15;;;;;;;38.80;15.85;;;;;;;13.26;94.77;101947.56;6086659;19;20011;-70
2023/05/12 07:15:20;;;;;;;40.42;16.50;;;;;;;13.16;94.62;101948.75;6095875;19;20032;-70
2023/05/12 07:17:27;;;;;;;45.53;17.30;;;;;;;13.19;94.17;101953.94;6089253;19;20011;-70
2023/05/12 07:19:35;;;;;;;37.50;15.73;;;;;;;13.27;94.50;101959.00;6101429;19;20003;-70
2023/05/12 07:21:40;;;;;;;39.42;16.95;;;;;;;13.26;94.30;101952.84;6102908;19;20010;-70
2023/05/12 07:23:45;;;;;;;43.72;17.17;;;;;;;13.27;94.09;101953.72;6102867;19;20010;-71
2023/05/12 07:25:50;;;;;;;41.53;17.05;;;;;;;13.22;93.70;101959.13;6100559;19;20003;-71
2023/05/12 07:27:55;;;;;;;41.03;17.25;;;;;;;13.28;93.98;101956.31;6098263;19;20082;-70
2023/05/12 07:30:00;;;;;;;42.03;17.15;;;;;;;13.38;93.57;101957.72;6097775;19;20105;-71
2023/05/12 07:32:06;;;;;;;40.97;17.42;;;;;;;13.41;93.51;101959.41;6097574;19;22394;-72
2023/05/12 07:34:11;;;;;;;43.95;17.67;;;;;;;13.49;94.06;101962.63;6104256;19;20011;-71
2023/05/12 07:36:21;;;;;;;46.08;16.85;;;;;;;13.47;92.39;101959.19;6100659;19;20021;-70
2023/05/12 07:38:29;;;;;;;43.47;17.33;;;;;;;13.51;93.72;101950.25;6100154;19;20014;-72
2023/05/12 07:40:35;;;;;;;45.47;17.45;;;;;;;13.62;93.27;101957.78;6103844;19;20002;-71
2023/05/12 07:42:40;;;;;;;42.33;17.33;;;;;;;13.68;92.48;101964.63;6099440;19;20003;-72
2023/05/12 07:44:45;;;;;;;48.80;19.42;;;;;;;13.76;92.75;101954.66;6103032;19;20077;-70
2023/05/12 07:46:50;;;;;;;43.80;17.75;;;;;;;13.89;92.53;101957.72;6100318;19;20461;-70
2023/05/12 07:48:56;;;;;;;42.90;18.58;;;;;;;13.92;91.95;101962.88;6099663;19;20040;-70
2023/05/12 07:51:01;;;;;;;43.08;17.20;;;;;;;14.07;91.54;101958.81;6099467;19;20009;-70
2023/05/12 07:53:09;;;;;;;40.28;16.75;;;;;;;14.01;90.56;101966.06;6097835;19;19999;-70
2023/05/12 07:55:14;;;;;;;39.65;16.98;;;;;;;14.23;90.81;101965.25;6101428;19;20018;-70
2023/05/12 07:57:19;;;;;;;43.55;17.20;;;;;;;14.32;90.85;101964.03;6096932;19;20045;-69
2023/05/12 07:59:24;;;;;;;42.33;16.90;;;;;;;14.34;90.50;101973.63;6104429;19;20466;-70
2023/05/12 08:01:29;;;;;;;38.25;15.63;;;;;;;14.35;89.92;101964.78;6100318;19;20090;-70
2023/05/12 08:03:35;;;;;;;42.03;16.80;;;;;;;14.30;90.04;101971.16;6095811;19;20014;-70
2023/05/12 08:05:40;;;;;;;46.20;17.70;;;;;;;14.33;88.32;101971.91;6096151;19;20622;-70
2023/05/12 08:07:46;;;;;;;41.80;16.50;;;;;;;14.80;88.30;101977.16;6096733;19;20138;-70
2023/05/12 08:09:54;;;;;;;38.60;16.27;;;;;;;14.85;88.20;101971.66;6097209;19;20010;-70
2023/05/12 08:11:58;;;;;;;40.22;17.83;;;;;;;14.82;88.09;101969.16;6095205;19;20543;-69
2023/05/12 08:14:03;;;;;;;43.47;17.52;;;;;;;14.91;87.21;101972.31;6097165;19;20007;-70
2023/05/12 08:16:08;;;;;;;41.85;17.17;;;;;;;14.86;87.14;101981.34;6094750;19;20006;-71
2023/05/12 08:18:13;;;;;;;40.30;17.63;;;;;;;14.84;87.54;101981.41;6093657;19;20422;-71
2023/05/12 08:20:19;;;;;;;42.28;18.17;;;;;;;14.86;87.97;101981.34;6098801;19;20014;-70
2023/05/12 08:22:24;;;;;;;41.03;16.65;;;;;;;14.86;86.98;101976.91;6096466;19;20222;-70
2023/05/12 08:24:29;;;;;;;40.45;18.20;;;;;;;14.87;87.46;101985.72;6094357;19;20018;-70
2023/05/12 08:26:36;;;;;;;44.42;16.70;;;;;;;14.95;87.07;101982.75;6097666;19;20554;-71
2023/05/12 08:28:41;;;;;;;43.75;17.52;;;;;;;14.95;87.29;101986.25;6095670;19;20030;-70
2023/05/12 08:30:46;;;;;;;42.45;18.15;;;;;;;15.02;86.37;101990.38;6092757;19;20105;-70
2023/05/12 08:32:51;;;;;;;41.83;18.48;;;;;;;15.00;85.42;101988.72;6094603;19;20003;-73
2023/05/12 08:34:56;;;;;;;42.05;16.92;;;;;;;15.19;86.18;101984.38;6095063;19;20295;-73
2023/05/12 08:37:01;;;;;;;43.63;18.25;;;;;;;15.21;85.94;101990.50;6097816;19;20007;-73
2023/05/12 08:39:07;;;;;;;38.40;16.55;;;;;;;15.30;84.26;101986.63;6097637;19;20002;-73
2023/05/12 08:41:17;;;;;;;37.40;18.20;;;;;;;15.40;85.05;101982.63;6095416;19;20011;-73
2023/05/12 08:43:28;;;;;;;39.55;17.10;;;;;;;15.41;84.34;101983.50;6095780;19;20408;-73
2023/05/12 08:45:33;;;;;;;35.88;15.88;;;;;;;15.46;83.99;101992.13;6097650;19;20574;-73
2023/05/12 08:47:39;;;;;;;41.65;17.77;;;;;;;15.61;84.07;101988.78;6096361;19;20068;-73
2023/05/12 08:49:46;;;;;;;38.97;16.83;;;;;;;15.79;83.83;101984.50;6100808;19;20006;-73
2023/05/12 08:51:56;;;;;;;39.25;17.30;;;;;;;15.90;82.87;101979.59;6099512;19;20117;-70
2023/05/12 08:54:03;;;;;;;37.42;16.33;;;;;;;15.87;82.24;101993.00;6099547;19;20007;-73
2023/05/12 08:56:10;;;;;;;40.28;16.73;;;;;;;16.00;81.27;101985.34;6100689;19;20035;-73
2023/05/12 08:58:18;;;;;;;42.35;17.40;;;;;;;16.00;80.59;101988.84;6098687;19;20014;-73
2023/05/12 09:00:40;;;;;;;42.08;18.63;;;;;;;16.18;81.44;101989.81;6098753;19;20007;-73
2023/05/12 09:02:48;;;;;;;40.20;18.33;;;;;;;16.58;78.72;101990.63;6095804;19;20097;-73
2023/05/12 09:04:58;;;;;;;39.33;16.40;;;;;;;16.90;78.01;101982.94;6100182;19;20113;-73
2023/05/12 09:07:03;;;;;;;34.15;15.85;;;;;;;17.02;77.86;101989.44;6103128;19;20280;-73
2023/05/12 09:09:08;;;;;;;35.80;16.00;;;;;;;17.18;76.14;101994.88;6095529;19;20106;-73
2023/05/12 09:11:14;;;;;;;35.90;17.30;;;;;;;17.32;75.83;101987.03;6100414;19;20109;-73
2023/05/12 09:13:25;;;;;;;35.72;15.55;;;;;;;17.34;75.72;101980.72;6100809;19;20131;-73
2023/05/12 09:15:37;;;;;;;37.20;15.82;;;;;;;17.29;74.92;102003.16;6103517;19;20023;-73
2023/05/12 09:17:44;;;;;;;34.37;14.87;;;;;;;17.04;75.87;101988.44;6100115;19;20754;-73
2023/05/12 09:19:49;;;;;;;32.15;14.50;;;;;;;17.01;75.61;101993.91;6103098;19;20469;-73
2023/05/12 09:21:54;;;;;;;32.13;14.57;;;;;;;16.87;75.05;101991.06;6098507;19;20590;-72
2023/05/12 09:24:04;;;;;;;28.08;13.07;;;;;;;17.15;75.89;101995.88;6101738;19;20453;-73
2023/05/12 09:26:09;;;;;;;32.33;15.63;;;;;;;16.98;74.97;101990.53;6102929;19;20014;-73
2023/05/12 09:28:16;;;;;;;28.75;14.70;;;;;;;17.27;74.59;101978.44;6101897;19;20034;-73
2023/05/12 09:30:31;;;;;;;35.25;16.73;;;;;;;17.57;74.27;101977.84;6101483;19;20370;-73
2023/05/12 09:32:37;;;;;;;31.65;15.63;;;;;;;18.07;73.59;101988.50;6079915;19;20088;-73
2023/05/12 09:34:45;;;;;;;32.67;15.50;;;;;;;18.07;71.80;101990.31;6101660;19;20052;-73